sensor_id;sensor_type;location;lat;lon;timestamp;pressure;altitude;pressure_sealevel;temperature;humidity
82743;BME280;72483;50.656;7.216;2024-02-23T00:01:39;98548.41;;;18.92;50.07
82743;BME280;72483;50.656;7.216;2024-02-23T00:04:06;98550.25;;;18.88;50.01
82743;BME280;72483;50.656;7.216;2024-02-23T00:06:34;98562.22;;;18.89;50.02
82743;BME280;72483;50.656;7.216;2024-02-23T00:09:01;98553.03;;;18.88;50.15
82743;BME280;72483;50.656;7.216;2024-02-23T00:11:28;98565.00;;;18.89;49.71
82743;BME280;72483;50.656;7.216;2024-02-23T00:13:55;98565.72;;;18.86;49.85
82743;BME280;72483;50.656;7.216;2024-02-23T00:16:22;98572.94;;;18.87;50.25
82743;BME280;72483;50.656;7.216;2024-02-23T00:18:48;98589.19;;;18.85;50.37
82743;BME280;72483;50.656;7.216;2024-02-23T00:21:15;98597.91;;;18.83;49.92
82743;BME280;72483;50.656;7.216;2024-02-23T00:23:41;98605.81;;;18.81;49.99
82743;BME280;72483;50.656;7.216;2024-02-23T00:26:09;98615.31;;;18.80;49.93
82743;BME280;72483;50.656;7.216;2024-02-23T00:28:35;98608.09;;;18.79;50.43
82743;BME280;72483;50.656;7.216;2024-02-23T00:31:02;98607.28;;;18.79;49.98
82743;BME280;72483;50.656;7.216;2024-02-23T00:33:29;98616.97;;;18.81;49.90
82743;BME280;72483;50.656;7.216;2024-02-23T00:35:55;98613.69;;;18.79;49.88
82743;BME280;72483;50.656;7.216;2024-02-23T00:38:22;98613.91;;;18.74;50.03
82743;BME280;72483;50.656;7.216;2024-02-23T00:40:48;98612.75;;;18.75;50.25
82743;BME280;72483;50.656;7.216;2024-02-23T00:43:18;98619.63;;;18.78;50.15
82743;BME280;72483;50.656;7.216;2024-02-23T00:45:45;98630.16;;;18.72;50.43
82743;BME280;72483;50.656;7.216;2024-02-23T00:48:11;98634.13;;;18.71;50.18
82743;BME280;72483;50.656;7.216;2024-02-23T00:50:39;98636.09;;;18.71;50.26
82743;BME280;72483;50.656;7.216;2024-02-23T00:53:05;98648.41;;;18.70;50.38
82743;BME280;72483;50.656;7.216;2024-02-23T00:55:32;98654.34;;;18.68;50.33
82743;BME280;72483;50.656;7.216;2024-02-23T00:57:58;98654.66;;;18.67;50.29
82743;BME280;72483;50.656;7.216;2024-02-23T01:00:26;98656.97;;;18.64;50.32
82743;BME280;72483;50.656;7.216;2024-02-23T01:02:53;98668.47;;;18.63;50.11
82743;BME280;72483;50.656;7.216;2024-02-23T01:05:19;98668.81;;;18.61;50.48
82743;BME280;72483;50.656;7.216;2024-02-23T01:07:46;98669.16;;;18.60;50.46
82743;BME280;72483;50.656;7.216;2024-02-23T01:10:13;98680.31;;;18.60;50.57
82743;BME280;72483;50.656;7.216;2024-02-23T01:12:39;98696.22;;;18.59;50.53
82743;BME280;72483;50.656;7.216;2024-02-23T01:15:06;98692.63;;;18.59;49.97
82743;BME280;72483;50.656;7.216;2024-02-23T01:17:34;98688.53;;;18.56;50.21
82743;BME280;72483;50.656;7.216;2024-02-23T01:20:01;98687.75;;;18.56;50.40
82743;BME280;72483;50.656;7.216;2024-02-23T01:22:27;98686.44;;;18.53;50.17
82743;BME280;72483;50.656;7.216;2024-02-23T01:24:54;98684.47;;;18.54;49.83
82743;BME280;72483;50.656;7.216;2024-02-23T01:27:20;98676.44;;;18.52;49.91
82743;BME280;72483;50.656;7.216;2024-02-23T01:29:48;98687.94;;;18.51;50.01
82743;BME280;72483;50.656;7.216;2024-02-23T01:32:14;98690.22;;;18.49;49.96
82743;BME280;72483;50.656;7.216;2024-02-23T01:34:42;98680.22;;;18.48;49.97
82743;BME280;72483;50.656;7.216;2024-02-23T01:37:09;98686.59;;;18.48;50.17
82743;BME280;72483;50.656;7.216;2024-02-23T01:39:36;98682.19;;;18.47;50.12
82743;BME280;72483;50.656;7.216;2024-02-23T01:42:03;98686.16;;;18.46;50.39
82743;BME280;72483;50.656;7.216;2024-02-23T01:44:30;98691.72;;;18.46;50.06
82743;BME280;72483;50.656;7.216;2024-02-23T01:47:00;98696.47;;;18.46;50.17
82743;BME280;72483;50.656;7.216;2024-02-23T01:49:26;98687.28;;;18.45;50.28
82743;BME280;72483;50.656;7.216;2024-02-23T01:51:58;98695.19;;;18.43;50.16
82743;BME280;72483;50.656;7.216;2024-02-23T01:54:24;98704.34;;;18.44;50.02
82743;BME280;72483;50.656;7.216;2024-02-23T01:56:53;98713.88;;;18.43;50.18
82743;BME280;72483;50.656;7.216;2024-02-23T01:59:20;98713.06;;;18.42;49.78
82743;BME280;72483;50.656;7.216;2024-02-23T02:01:47;98709.81;;;18.40;49.68
82743;BME280;72483;50.656;7.216;2024-02-23T02:04:14;98718.50;;;18.39;49.92
82743;BME280;72483;50.656;7.216;2024-02-23T02:06:40;98723.25;;;18.38;49.56
82743;BME280;72483;50.656;7.216;2024-02-23T02:09:08;98729.66;;;18.39;50.06
82743;BME280;72483;50.656;7.216;2024-02-23T02:11:45;98727.69;;;18.39;49.85
82743;BME280;72483;50.656;7.216;2024-02-23T02:14:11;98732.44;;;18.39;49.51
82743;BME280;72483;50.656;7.216;2024-02-23T02:16:38;98731.59;;;18.38;49.62
82743;BME280;72483;50.656;7.216;2024-02-23T02:19:05;98733.94;;;18.36;50.04
82743;BME280;72483;50.656;7.216;2024-02-23T02:21:32;98738.34;;;18.37;49.89
82743;BME280;72483;50.656;7.216;2024-02-23T02:23:59;98737.53;;;18.37;49.69
82743;BME280;72483;50.656;7.216;2024-02-23T02:26:27;98747.88;;;18.36;49.65
82743;BME280;72483;50.656;7.216;2024-02-23T02:28:53;98749.00;;;18.35;49.90
82743;BME280;72483;50.656;7.216;2024-02-23T02:31:20;98752.63;;;18.36;49.41
82743;BME280;72483;50.656;7.216;2024-02-23T02:33:46;98756.22;;;18.36;49.75
82743;BME280;72483;50.656;7.216;2024-02-23T02:36:13;98766.09;;;18.34;49.65
82743;BME280;72483;50.656;7.216;2024-02-23T02:38:39;98756.56;;;18.35;49.68
82743;BME280;72483;50.656;7.216;2024-02-23T02:41:06;98752.16;;;18.34;49.56
82743;BME280;72483;50.656;7.216;2024-02-23T02:43:34;98768.88;;;18.34;49.75
82743;BME280;72483;50.656;7.216;2024-02-23T02:46:00;98763.63;;;18.32;49.47
82743;BME280;72483;50.656;7.216;2024-02-23T02:48:27;98765.25;;;18.33;49.45
82743;BME280;72483;50.656;7.216;2024-02-23T02:50:53;98769.19;;;18.32;49.28
82743;BME280;72483;50.656;7.216;2024-02-23T02:53:20;98775.59;;;18.33;49.57
82743;BME280;72483;50.656;7.216;2024-02-23T02:55:47;98775.59;;;18.33;49.50
82743;BME280;72483;50.656;7.216;2024-02-23T02:58:13;98775.25;;;18.34;49.39
82743;BME280;72483;50.656;7.216;2024-02-23T03:00:42;98781.16;;;18.33;49.72
82743;BME280;72483;50.656;7.216;2024-02-23T03:03:08;98777.56;;;18.32;49.67
82743;BME280;72483;50.656;7.216;2024-02-23T03:05:35;98769.53;;;18.31;49.21
82743;BME280;72483;50.656;7.216;2024-02-23T03:08:02;98771.50;;;18.30;49.72
82743;BME280;72483;50.656;7.216;2024-02-23T03:10:28;98767.09;;;18.29;49.41
82743;BME280;72483;50.656;7.216;2024-02-23T03:12:55;98780.19;;;18.29;49.52
82743;BME280;72483;50.656;7.216;2024-02-23T03:15:23;98770.69;;;18.30;49.26
82743;BME280;72483;50.656;7.216;2024-02-23T03:17:51;98781.00;;;18.29;49.17
82743;BME280;72483;50.656;7.216;2024-02-23T03:20:19;98781.84;;;18.30;49.65
82743;BME280;72483;50.656;7.216;2024-02-23T03:22:46;98785.78;;;18.29;49.52
82743;BME280;72483;50.656;7.216;2024-02-23T03:25:12;98792.16;;;18.29;49.41
82743;BME280;72483;50.656;7.216;2024-02-23T03:27:39;98797.75;;;18.29;49.20
82743;BME280;72483;50.656;7.216;2024-02-23T03:30:06;98801.66;;;18.28;49.43
82743;BME280;72483;50.656;7.216;2024-02-23T03:32:34;98792.53;;;18.28;49.21
82743;BME280;72483;50.656;7.216;2024-02-23T03:35:05;98795.31;;;18.28;49.48
82743;BME280;72483;50.656;7.216;2024-02-23T03:37:32;98793.66;;;18.27;49.52
82743;BME280;72483;50.656;7.216;2024-02-23T03:39:59;98796.44;;;18.27;49.39
82743;BME280;72483;50.656;7.216;2024-02-23T03:42:26;98797.59;;;18.26;49.64
82743;BME280;72483;50.656;7.216;2024-02-23T03:44:52;98789.22;;;18.26;49.24
82743;BME280;72483;50.656;7.216;2024-02-23T03:47:19;98785.63;;;18.25;48.98
82743;BME280;72483;50.656;7.216;2024-02-23T03:49:45;98782.84;;;18.25;49.27
82743;BME280;72483;50.656;7.216;2024-02-23T03:52:13;98789.59;;;18.24;49.36
82743;BME280;72483;50.656;7.216;2024-02-23T03:54:40;98775.66;;;18.24;49.36
82743;BME280;72483;50.656;7.216;2024-02-23T03:57:06;98780.06;;;18.25;49.58
82743;BME280;72483;50.656;7.216;2024-02-23T03:59:35;98776.47;;;18.25;49.25
82743;BME280;72483;50.656;7.216;2024-02-23T04:02:01;98782.03;;;18.25;49.42
82743;BME280;72483;50.656;7.216;2024-02-23T04:04:28;98784.00;;;18.24;48.97
82743;BME280;72483;50.656;7.216;2024-02-23T04:06:55;98787.13;;;18.23;49.10
82743;BME280;72483;50.656;7.216;2024-02-23T04:09:22;98789.09;;;18.22;49.17
82743;BME280;72483;50.656;7.216;2024-02-23T04:11:50;98791.53;;;18.24;49.10
82743;BME280;72483;50.656;7.216;2024-02-23T04:14:16;98792.69;;;18.23;49.49
82743;BME280;72483;50.656;7.216;2024-02-23T04:16:43;98785.16;;;18.23;49.04
82743;BME280;72483;50.656;7.216;2024-02-23T04:19:09;98780.72;;;18.22;48.96
82743;BME280;72483;50.656;7.216;2024-02-23T04:21:35;98773.53;;;18.21;49.34
82743;BME280;72483;50.656;7.216;2024-02-23T04:24:02;98779.91;;;18.22;48.85
82743;BME280;72483;50.656;7.216;2024-02-23T04:26:30;98773.53;;;18.21;48.99
82743;BME280;72483;50.656;7.216;2024-02-23T04:28:57;98779.09;;;18.21;49.01
82743;BME280;72483;50.656;7.216;2024-02-23T04:31:23;98775.50;;;18.21;49.46
82743;BME280;72483;50.656;7.216;2024-02-23T04:33:50;98781.06;;;18.21;48.83
82743;BME280;72483;50.656;7.216;2024-02-23T04:36:19;98782.22;;;18.20;49.38
82743;BME280;72483;50.656;7.216;2024-02-23T04:38:45;98775.81;;;18.19;48.94
82743;BME280;72483;50.656;7.216;2024-02-23T04:41:12;98785.00;;;18.20;49.30
82743;BME280;72483;50.656;7.216;2024-02-23T04:43:40;98795.00;;;18.21;49.24
82743;BME280;72483;50.656;7.216;2024-02-23T04:46:06;98791.72;;;18.19;48.90
82743;BME280;72483;50.656;7.216;2024-02-23T04:48:33;98800.91;;;18.19;49.18
82743;BME280;72483;50.656;7.216;2024-02-23T04:51:01;98797.28;;;18.19;49.29
82743;BME280;72483;50.656;7.216;2024-02-23T04:53:28;98802.41;;;18.17;48.81
82743;BME280;72483;50.656;7.216;2024-02-23T04:55:54;98785.22;;;18.15;48.68
82743;BME280;72483;50.656;7.216;2024-02-23T04:58:21;98786.81;;;18.16;48.94
82743;BME280;72483;50.656;7.216;2024-02-23T05:00:48;98795.19;;;18.16;49.40
82743;BME280;72483;50.656;7.216;2024-02-23T05:03:15;98803.53;;;18.16;48.86
82743;BME280;72483;50.656;7.216;2024-02-23T05:05:41;98795.53;;;18.14;48.90
82743;BME280;72483;50.656;7.216;2024-02-23T05:08:08;98799.47;;;18.13;48.90
82743;BME280;72483;50.656;7.216;2024-02-23T05:10:35;98801.41;;;18.12;49.16
82743;BME280;72483;50.656;7.216;2024-02-23T05:13:01;98798.63;;;18.12;49.32
82743;BME280;72483;50.656;7.216;2024-02-23T05:15:28;98797.84;;;18.12;48.87
82743;BME280;72483;50.656;7.216;2024-02-23T05:17:55;98809.78;;;18.12;49.32
82743;BME280;72483;50.656;7.216;2024-02-23T05:20:22;98801.41;;;18.12;48.87
82743;BME280;72483;50.656;7.216;2024-02-23T05:22:48;98793.88;;;18.13;49.08
82743;BME280;72483;50.656;7.216;2024-02-23T05:25:15;98788.00;;;18.15;48.74
82743;BME280;72483;50.656;7.216;2024-02-23T05:27:41;98777.31;;;18.17;48.94
82743;BME280;72483;50.656;7.216;2024-02-23T05:30:09;98779.44;;;18.20;48.75
82743;BME280;72483;50.656;7.216;2024-02-23T05:32:35;98773.19;;;18.23;48.76
82743;BME280;72483;50.656;7.216;2024-02-23T05:35:04;98764.16;;;18.26;49.13
82743;BME280;72483;50.656;7.216;2024-02-23T05:37:31;98764.28;;;18.29;49.08
82743;BME280;72483;50.656;7.216;2024-02-23T05:39:57;98767.22;;;18.33;48.48
82743;BME280;72483;50.656;7.216;2024-02-23T05:42:25;98769.03;;;18.37;49.00
82743;BME280;72483;50.656;7.216;2024-02-23T05:44:51;98759.63;;;18.42;48.45
82743;BME280;72483;50.656;7.216;2024-02-23T05:47:17;98757.81;;;18.46;48.37
82743;BME280;72483;50.656;7.216;2024-02-23T05:49:46;98750.72;;;18.48;48.38
82743;BME280;72483;50.656;7.216;2024-02-23T05:52:14;98759.28;;;18.52;48.66
82743;BME280;72483;50.656;7.216;2024-02-23T05:54:41;98757.09;;;18.57;48.58
82743;BME280;72483;50.656;7.216;2024-02-23T05:57:07;98765.91;;;18.59;48.02
82743;BME280;72483;50.656;7.216;2024-02-23T05:59:34;98767.56;;;18.60;48.08
82743;BME280;72483;50.656;7.216;2024-02-23T06:02:00;98765.38;;;18.66;48.32
82743;BME280;72483;50.656;7.216;2024-02-23T06:04:27;98753.56;;;18.69;48.46
82743;BME280;72483;50.656;7.216;2024-02-23T06:06:54;98754.50;;;18.73;48.19
82743;BME280;72483;50.656;7.216;2024-02-23T06:09:22;98746.63;;;18.75;48.06
82743;BME280;72483;50.656;7.216;2024-02-23T06:11:48;98757.59;;;18.80;48.38
82743;BME280;72483;50.656;7.216;2024-02-23T06:14:15;98762.81;;;18.82;48.92
82743;BME280;72483;50.656;7.216;2024-02-23T06:16:41;98758.53;;;18.84;48.46
82743;BME280;72483;50.656;7.216;2024-02-23T06:19:08;98761.34;;;18.84;48.04
82743;BME280;72483;50.656;7.216;2024-02-23T06:21:34;98766.22;;;18.87;48.76
82743;BME280;72483;50.656;7.216;2024-02-23T06:24:01;98758.31;;;18.89;48.48
82743;BME280;72483;50.656;7.216;2024-02-23T06:26:29;98761.56;;;18.91;48.78
82743;BME280;72483;50.656;7.216;2024-02-23T06:28:57;98748.13;;;18.93;48.69
82743;BME280;72483;50.656;7.216;2024-02-23T06:31:23;98746.16;;;18.94;48.72
82743;BME280;72483;50.656;7.216;2024-02-23T06:33:50;98743.00;;;18.95;48.95
82743;BME280;72483;50.656;7.216;2024-02-23T06:36:17;98741.38;;;18.94;48.38
82743;BME280;72483;50.656;7.216;2024-02-23T06:38:44;98757.41;;;18.97;49.04
82743;BME280;72483;50.656;7.216;2024-02-23T06:41:11;98743.00;;;18.95;48.13
82743;BME280;72483;50.656;7.216;2024-02-23T06:43:39;98752.19;;;18.96;48.64
82743;BME280;72483;50.656;7.216;2024-02-23T06:46:06;98753.47;;;18.98;48.55
82743;BME280;72483;50.656;7.216;2024-02-23T06:48:33;98766.28;;;18.99;48.02
82743;BME280;72483;50.656;7.216;2024-02-23T06:50:59;98762.66;;;18.99;48.61
82743;BME280;72483;50.656;7.216;2024-02-23T06:53:26;98764.31;;;19.00;48.52
82743;BME280;72483;50.656;7.216;2024-02-23T06:55:52;98766.28;;;18.99;48.40
82743;BME280;72483;50.656;7.216;2024-02-23T06:58:19;98772.69;;;19.00;48.31
82743;BME280;72483;50.656;7.216;2024-02-23T07:00:47;98769.53;;;19.01;48.56
82743;BME280;72483;50.656;7.216;2024-02-23T07:03:13;98777.91;;;19.01;48.46
82743;BME280;72483;50.656;7.216;2024-02-23T07:05:40;98774.28;;;19.01;48.40
82743;BME280;72483;50.656;7.216;2024-02-23T07:08:07;98771.50;;;19.01;48.50
82743;BME280;72483;50.656;7.216;2024-02-23T07:10:34;98768.72;;;19.01;48.62
82743;BME280;72483;50.656;7.216;2024-02-23T07:13:00;98770.34;;;19.02;48.58
82743;BME280;72483;50.656;7.216;2024-02-23T07:15:27;98762.81;;;19.02;48.23
82743;BME280;72483;50.656;7.216;2024-02-23T07:17:56;98773.97;;;19.02;48.39
82743;BME280;72483;50.656;7.216;2024-02-23T07:20:23;98774.78;;;19.03;48.94
82743;BME280;72483;50.656;7.216;2024-02-23T07:22:50;98773.16;;;19.02;48.28
82743;BME280;72483;50.656;7.216;2024-02-23T07:25:17;98774.28;;;19.01;47.93
82743;BME280;72483;50.656;7.216;2024-02-23T07:27:45;98769.06;;;18.99;48.01
82743;BME280;72483;50.656;7.216;2024-02-23T07:30:12;98777.91;;;19.01;48.38
82743;BME280;72483;50.656;7.216;2024-02-23T07:32:38;98772.31;;;19.01;48.41
82743;BME280;72483;50.656;7.216;2024-02-23T07:35:07;98775.13;;;19.01;48.56
82743;BME280;72483;50.656;7.216;2024-02-23T07:37:34;98779.56;;;19.02;48.28
82743;BME280;72483;50.656;7.216;2024-02-23T07:40:00;98788.25;;;19.01;48.32
82743;BME280;72483;50.656;7.216;2024-02-23T07:42:28;98797.13;;;19.03;48.92
82743;BME280;72483;50.656;7.216;2024-02-23T07:44:55;98800.22;;;19.01;48.66
82743;BME280;72483;50.656;7.216;2024-02-23T07:47:22;98789.88;;;19.02;48.18
82743;BME280;72483;50.656;7.216;2024-02-23T07:49:48;98803.50;;;19.03;48.62
82743;BME280;72483;50.656;7.216;2024-02-23T07:52:17;98800.72;;;19.03;48.57
82743;BME280;72483;50.656;7.216;2024-02-23T07:54:44;98794.78;;;19.05;49.27
82743;BME280;72483;50.656;7.216;2024-02-23T07:57:11;98795.88;;;19.12;48.70
82743;BME280;72483;50.656;7.216;2024-02-23T07:59:38;98802.75;;;19.15;49.25
82743;BME280;72483;50.656;7.216;2024-02-23T08:02:05;98806.81;;;19.17;49.02
82743;BME280;72483;50.656;7.216;2024-02-23T08:04:31;98807.19;;;19.16;49.38
82743;BME280;72483;50.656;7.216;2024-02-23T08:06:58;98813.22;;;19.18;49.15
82743;BME280;72483;50.656;7.216;2024-02-23T08:09:26;98820.31;;;19.15;49.16
82743;BME280;72483;50.656;7.216;2024-02-23T08:11:53;98807.88;;;19.13;49.12
82743;BME280;72483;50.656;7.216;2024-02-23T08:14:19;98812.63;;;19.12;49.88
82743;BME280;72483;50.656;7.216;2024-02-23T08:16:46;98809.84;;;19.12;49.26
82743;BME280;72483;50.656;7.216;2024-02-23T08:19:12;98810.66;;;19.13;50.16
82743;BME280;72483;50.656;7.216;2024-02-23T08:25:07;98815.88;;;19.14;49.45
82743;BME280;72483;50.656;7.216;2024-02-23T08:27:33;98812.28;;;19.14;49.31
82743;BME280;72483;50.656;7.216;2024-02-23T08:30:00;98812.63;;;19.12;49.32
82743;BME280;72483;50.656;7.216;2024-02-23T08:32:26;98811.13;;;19.15;49.24
82743;BME280;72483;50.656;7.216;2024-02-23T08:34:53;98822.06;;;19.20;49.52
82743;BME280;72483;50.656;7.216;2024-02-23T08:37:24;98807.78;;;19.22;49.27
82743;BME280;72483;50.656;7.216;2024-02-23T08:39:51;98807.78;;;19.22;49.02
82743;BME280;72483;50.656;7.216;2024-02-23T08:42:19;98814.66;;;19.24;49.73
82743;BME280;72483;50.656;7.216;2024-02-23T08:44:45;98812.69;;;19.25;49.00
82743;BME280;72483;50.656;7.216;2024-02-23T08:47:12;98816.63;;;19.24;48.85
82743;BME280;72483;50.656;7.216;2024-02-23T08:49:38;98802.66;;;19.24;49.06
82743;BME280;72483;50.656;7.216;2024-02-23T08:52:05;98813.16;;;19.27;48.47
82743;BME280;72483;50.656;7.216;2024-02-23T08:54:31;98817.56;;;19.28;48.61
82743;BME280;72483;50.656;7.216;2024-02-23T08:56:58;98808.38;;;19.27;48.78
82743;BME280;72483;50.656;7.216;2024-02-23T08:59:26;98813.16;;;19.27;48.33
82743;BME280;72483;50.656;7.216;2024-02-23T09:01:52;98822.00;;;19.29;48.90
82743;BME280;72483;50.656;7.216;2024-02-23T09:04:19;98817.22;;;19.29;48.46
82743;BME280;72483;50.656;7.216;2024-02-23T09:06:45;98832.50;;;19.32;48.03
82743;BME280;72483;50.656;7.216;2024-02-23T09:09:12;98823.63;;;19.30;48.22
82743;BME280;72483;50.656;7.216;2024-02-23T09:11:38;98838.09;;;19.32;48.24
82743;BME280;72483;50.656;7.216;2024-02-23T09:14:05;98845.13;;;19.29;48.20
82743;BME280;72483;50.656;7.216;2024-02-23T09:16:33;98848.28;;;19.28;48.16
82743;BME280;72483;50.656;7.216;2024-02-23T09:18:59;98851.06;;;19.28;48.03
82743;BME280;72483;50.656;7.216;2024-02-23T09:21:26;98831.41;;;19.24;48.10
82743;BME280;72483;50.656;7.216;2024-02-23T09:23:52;98848.97;;;19.25;48.99
82743;BME280;72483;50.656;7.216;2024-02-23T09:26:19;98842.56;;;19.24;48.41
82743;BME280;72483;50.656;7.216;2024-02-23T09:28:45;98845.81;;;19.26;48.16
82743;BME280;72483;50.656;7.216;2024-02-23T09:31:12;98841.06;;;19.27;48.49
82743;BME280;72483;50.656;7.216;2024-02-23T09:33:40;98838.94;;;19.24;48.21
82743;BME280;72483;50.656;7.216;2024-02-23T09:36:06;98836.66;;;19.26;47.79
82743;BME280;72483;50.656;7.216;2024-02-23T09:38:35;98837.13;;;19.28;48.05
82743;BME280;72483;50.656;7.216;2024-02-23T09:41:01;98835.97;;;19.29;47.56
82743;BME280;72483;50.656;7.216;2024-02-23T09:43:29;98842.47;;;19.33;47.96
82743;BME280;72483;50.656;7.216;2024-02-23T09:45:57;98840.38;;;19.30;48.08
82743;BME280;72483;50.656;7.216;2024-02-23T09:48:24;98843.66;;;19.32;47.75
82743;BME280;72483;50.656;7.216;2024-02-23T09:50:53;98849.94;;;19.29;48.05
82743;BME280;72483;50.656;7.216;2024-02-23T09:53:22;98855.00;;;19.27;48.05
82743;BME280;72483;50.656;7.216;2024-02-23T09:55:50;98842.84;;;19.31;47.58
82743;BME280;72483;50.656;7.216;2024-02-23T09:58:16;98848.44;;;19.31;47.92
82743;BME280;72483;50.656;7.216;2024-02-23T10:00:44;98854.00;;;19.31;47.54
82743;BME280;72483;50.656;7.216;2024-02-23T10:03:11;98854.00;;;19.31;47.43
82743;BME280;72483;50.656;7.216;2024-02-23T10:05:37;98862.72;;;19.30;47.92
82743;BME280;72483;50.656;7.216;2024-02-23T10:08:05;98860.41;;;19.32;48.09
82743;BME280;72483;50.656;7.216;2024-02-23T10:10:33;98852.50;;;19.34;47.56
82743;BME280;72483;50.656;7.216;2024-02-23T10:13:00;98861.34;;;19.36;47.47
82743;BME280;72483;50.656;7.216;2024-02-23T10:15:29;98857.88;;;19.39;47.26
82743;BME280;72483;50.656;7.216;2024-02-23T10:17:55;98860.19;;;19.37;47.21
82743;BME280;72483;50.656;7.216;2024-02-23T10:20:22;98870.22;;;19.38;48.01
82743;BME280;72483;50.656;7.216;2024-02-23T10:22:49;98870.91;;;19.35;47.65
82743;BME280;72483;50.656;7.216;2024-02-23T10:25:19;98859.22;;;19.33;47.93
82743;BME280;72483;50.656;7.216;2024-02-23T10:27:46;98847.75;;;19.34;47.53
82743;BME280;72483;50.656;7.216;2024-02-23T10:30:13;98854.00;;;19.31;47.49
82743;BME280;72483;50.656;7.216;2024-02-23T10:32:40;98854.00;;;19.31;47.74
82743;BME280;72483;50.656;7.216;2024-02-23T10:35:10;98861.88;;;19.29;47.52
82743;BME280;72483;50.656;7.216;2024-02-23T10:37:36;98861.19;;;19.32;47.57
82743;BME280;72483;50.656;7.216;2024-02-23T10:40:06;98869.94;;;19.31;47.36
82743;BME280;72483;50.656;7.216;2024-02-23T10:42:38;98857.63;;;19.32;47.30
82743;BME280;72483;50.656;7.216;2024-02-23T10:45:06;98864.81;;;19.33;47.57
82743;BME280;72483;50.656;7.216;2024-02-23T10:47:34;98868.91;;;19.35;47.37
82743;BME280;72483;50.656;7.216;2024-02-23T10:50:02;98871.81;;;19.39;47.95
82743;BME280;72483;50.656;7.216;2024-02-23T10:52:30;98868.75;;;19.40;47.18
82743;BME280;72483;50.656;7.216;2024-02-23T10:55:00;98861.47;;;19.39;47.65
82743;BME280;72483;50.656;7.216;2024-02-23T10:57:30;98867.41;;;19.38;47.75
82743;BME280;72483;50.656;7.216;2024-02-23T10:59:58;98870.38;;;19.41;47.51
82743;BME280;72483;50.656;7.216;2024-02-23T11:02:26;98858.84;;;19.43;47.21
82743;BME280;72483;50.656;7.216;2024-02-23T11:04:55;98865.25;;;19.43;47.00
82743;BME280;72483;50.656;7.216;2024-02-23T11:07:22;98881.66;;;19.45;47.39
82743;BME280;72483;50.656;7.216;2024-02-23T11:09:52;98877.56;;;19.42;47.55
82743;BME280;72483;50.656;7.216;2024-02-23T11:12:25;98876.44;;;19.43;47.62
82743;BME280;72483;50.656;7.216;2024-02-23T11:14:58;98886.78;;;19.43;47.30
82743;BME280;72483;50.656;7.216;2024-02-23T11:17:26;98893.03;;;19.40;47.51
82743;BME280;72483;50.656;7.216;2024-02-23T11:19:54;98878.22;;;19.39;47.46
82743;BME280;72483;50.656;7.216;2024-02-23T11:22:24;98876.75;;;19.42;47.59
82743;BME280;72483;50.656;7.216;2024-02-23T11:24:52;98875.28;;;19.44;47.71
82743;BME280;72483;50.656;7.216;2024-02-23T11:27:18;98870.03;;;19.43;47.73
82743;BME280;72483;50.656;7.216;2024-02-23T11:29:46;98860.50;;;19.44;47.53
82743;BME280;72483;50.656;7.216;2024-02-23T11:32:16;98865.41;;;19.47;47.37
82743;BME280;72483;50.656;7.216;2024-02-23T11:34:54;98873.28;;;19.45;47.55
82743;BME280;72483;50.656;7.216;2024-02-23T11:37:22;98864.78;;;19.41;47.83
82743;BME280;72483;50.656;7.216;2024-02-23T11:39:49;98854.09;;;19.43;47.59
82743;BME280;72483;50.656;7.216;2024-02-23T11:42:16;98860.13;;;19.45;47.25
82743;BME280;72483;50.656;7.216;2024-02-23T11:44:44;98855.25;;;19.42;47.64
82743;BME280;72483;50.656;7.216;2024-02-23T11:47:10;98860.81;;;19.42;47.49
82743;BME280;72483;50.656;7.216;2024-02-23T11:49:38;98844.44;;;19.41;47.17
82743;BME280;72483;50.656;7.216;2024-02-23T11:52:05;98835.22;;;19.40;47.22
82743;BME280;72483;50.656;7.216;2024-02-23T11:54:32;98849.78;;;19.46;47.64
82743;BME280;72483;50.656;7.216;2024-02-23T11:56:59;98853.41;;;19.46;47.21
82743;BME280;72483;50.656;7.216;2024-02-23T11:59:25;98852.25;;;19.47;47.48
82743;BME280;72483;50.656;7.216;2024-02-23T12:01:52;98853.19;;;19.51;47.03
82743;BME280;72483;50.656;7.216;2024-02-23T12:04:19;98841.41;;;19.46;47.46
82743;BME280;72483;50.656;7.216;2024-02-23T12:06:46;98830.59;;;19.44;47.28
82743;BME280;72483;50.656;7.216;2024-02-23T12:09:14;98839.44;;;19.46;47.59
82743;BME280;72483;50.656;7.216;2024-02-23T12:11:41;98836.66;;;19.46;47.25
82743;BME280;72483;50.656;7.216;2024-02-23T12:14:07;98842.25;;;19.46;47.44
82743;BME280;72483;50.656;7.216;2024-02-23T12:16:34;98837.13;;;19.48;47.48
82743;BME280;72483;50.656;7.216;2024-02-23T12:19:01;98839.56;;;19.50;47.12
82743;BME280;72483;50.656;7.216;2024-02-23T12:21:28;98843.53;;;19.49;47.36
82743;BME280;72483;50.656;7.216;2024-02-23T12:23:56;98840.41;;;19.50;47.02
82743;BME280;72483;50.656;7.216;2024-02-23T12:26:22;98838.06;;;19.52;46.98
82743;BME280;72483;50.656;7.216;2024-02-23T12:28:49;98834.47;;;19.52;46.84
82743;BME280;72483;50.656;7.216;2024-02-23T12:31:15;98830.03;;;19.51;46.93
82743;BME280;72483;50.656;7.216;2024-02-23T12:33:42;98841.69;;;19.53;47.33
82743;BME280;72483;50.656;7.216;2024-02-23T12:36:13;98851.03;;;19.57;46.87
82743;BME280;72483;50.656;7.216;2024-02-23T12:38:39;98852.16;;;19.56;47.12
82743;BME280;72483;50.656;7.216;2024-02-23T12:41:07;98852.84;;;19.53;46.93
82743;BME280;72483;50.656;7.216;2024-02-23T12:43:34;98852.16;;;19.56;47.04
82743;BME280;72483;50.656;7.216;2024-02-23T12:46:00;98853.31;;;19.55;47.25
82743;BME280;72483;50.656;7.216;2024-02-23T12:48:28;98839.72;;;19.53;47.47
82743;BME280;72483;50.656;7.216;2024-02-23T12:50:55;98838.06;;;19.52;47.12
82743;BME280;72483;50.656;7.216;2024-02-23T12:53:33;98844.94;;;19.55;47.10
82743;BME280;72483;50.656;7.216;2024-02-23T12:56:02;98839.84;;;19.57;47.27
82743;BME280;72483;50.656;7.216;2024-02-23T12:58:30;98831.47;;;19.57;47.43
82743;BME280;72483;50.656;7.216;2024-02-23T13:00:57;98841.13;;;19.59;47.01
82743;BME280;72483;50.656;7.216;2024-02-23T13:03:24;98845.06;;;19.58;47.38